createdAt,value
2018-03-04T00:01:11.726Z,98245.12
2018-03-04T00:03:40.234Z,98250.35
2018-03-04T00:06:08.745Z,98228.97
2018-03-04T00:08:37.213Z,98223.30
2018-03-04T00:11:05.696Z,98216.73
2018-03-04T00:13:34.216Z,98213.02
2018-03-04T00:16:02.722Z,98189.52
2018-03-04T00:18:31.234Z,98173.73
2018-03-04T00:20:59.742Z,98156.14
2018-03-04T00:23:28.263Z,98134.63
2018-03-04T00:25:56.805Z,98135.63
2018-03-04T00:28:25.310Z,98145.84
2018-03-04T00:30:53.832Z,98175.66
2018-03-04T00:33:22.331Z,98205.48
2018-03-04T00:35:50.826Z,98184.92
2018-03-04T00:38:19.318Z,98154.87
2018-03-04T00:40:47.822Z,98140.23
2018-03-04T00:43:16.290Z,98145.09
2018-03-04T00:45:44.804Z,98164.38
2018-03-04T00:48:13.311Z,98159.20
2018-03-04T00:50:41.814Z,98153.80
2018-03-04T00:53:10.315Z,98168.97
2018-03-04T00:55:38.773Z,98165.34
2018-03-04T00:58:07.274Z,98157.69
2018-03-04T01:00:35.769Z,98168.28
2018-03-04T01:03:04.287Z,98148.80
2018-03-04T01:05:32.750Z,98132.09
2018-03-04T01:08:01.239Z,98136.06
2018-03-04T01:10:29.769Z,98142.01
2018-03-04T01:12:58.274Z,98141.55
2018-03-04T01:15:26.775Z,98146.92
2018-03-04T01:17:55.270Z,98167.62
2018-03-04T01:20:23.767Z,98171.35
2018-03-04T01:22:52.246Z,98151.70
2018-03-04T01:25:20.702Z,98168.20
2018-03-04T01:27:49.212Z,98153.53
2018-03-04T01:30:17.719Z,98155.11
2018-03-04T01:32:46.186Z,98144.45
2018-03-04T01:35:14.754Z,98147.80
2018-03-04T01:37:43.238Z,98142.52
2018-03-04T01:40:11.721Z,98139.94
2018-03-04T01:42:40.234Z,98123.07
2018-03-04T01:45:08.675Z,98123.38
2018-03-04T01:47:37.202Z,98127.74
2018-03-04T01:50:05.729Z,98132.52
2018-03-04T01:52:34.248Z,98135.03
2018-03-04T01:55:02.718Z,98131.05
2018-03-04T01:57:31.188Z,98122.98
2018-03-04T01:59:59.694Z,98117.00
2018-03-04T02:02:28.150Z,98109.17
2018-03-04T02:04:56.663Z,98108.07
2018-03-04T02:07:25.199Z,98107.12
2018-03-04T02:09:53.658Z,98098.03
2018-03-04T02:12:22.158Z,98097.65
2018-03-04T02:14:50.653Z,98109.91
2018-03-04T02:17:19.145Z,98099.62
2018-03-04T02:19:47.610Z,98100.22
2018-03-04T02:22:16.125Z,98100.91
2018-03-04T02:24:44.599Z,98108.95
2018-03-04T02:27:13.122Z,98112.76
2018-03-04T02:29:41.590Z,98092.64
2018-03-04T02:32:10.157Z,98089.47
2018-03-04T02:34:38.681Z,98088.08
2018-03-04T02:37:07.184Z,98090.05
2018-03-04T02:39:35.650Z,98095.55
2018-03-04T02:42:04.267Z,98080.46
2018-03-04T02:44:32.779Z,98103.26
2018-03-04T02:47:01.254Z,98107.17
2018-03-04T02:49:29.767Z,98108.73
2018-03-04T02:51:58.243Z,98113.34
2018-03-04T02:54:26.747Z,98108.05
2018-03-04T02:56:55.243Z,98108.09
2018-03-04T02:59:23.726Z,98113.14
2018-03-04T03:01:52.190Z,98120.06
2018-03-04T03:04:20.683Z,98129.82
2018-03-04T03:06:49.202Z,98136.98
2018-03-04T03:09:17.680Z,98140.72
2018-03-04T03:11:46.182Z,98131.48
2018-03-04T03:14:14.646Z,98148.50
2018-03-04T03:16:43.150Z,98153.25
2018-03-04T03:19:11.622Z,98153.05
2018-03-04T03:21:40.086Z,98148.78
2018-03-04T03:24:08.585Z,98156.36
2018-03-04T03:26:37.083Z,98172.88
2018-03-04T03:29:05.627Z,98168.55
2018-03-04T03:31:34.088Z,98171.05
2018-03-04T03:34:02.586Z,98174.53
2018-03-04T03:36:31.088Z,98173.03
2018-03-04T03:38:59.568Z,98172.84
2018-03-04T03:41:28.076Z,98170.13
2018-03-04T03:43:56.541Z,98168.54
2018-03-04T03:46:25.047Z,98170.27
2018-03-04T03:48:53.505Z,98173.72
2018-03-04T03:51:21.966Z,98175.46
2018-03-04T03:53:50.476Z,98174.88
2018-03-04T03:56:18.966Z,98161.70
2018-03-04T03:58:47.470Z,98171.84
2018-03-04T04:01:15.977Z,98148.87
2018-03-04T04:03:44.482Z,98166.89
2018-03-04T04:06:12.947Z,98171.13
2018-03-04T04:08:41.460Z,98172.34
2018-03-04T04:11:09.958Z,98176.30
2018-03-04T04:13:38.418Z,98175.95
2018-03-04T04:16:06.953Z,98181.05
2018-03-04T04:18:35.429Z,98171.27
2018-03-04T04:21:03.952Z,98170.69
2018-03-04T04:23:32.447Z,98178.38
2018-03-04T04:26:00.937Z,98186.81
2018-03-04T04:28:29.477Z,98194.08
2018-03-04T04:30:57.973Z,98196.91
2018-03-04T04:33:26.466Z,98207.22
2018-03-04T04:35:54.962Z,98213.84
2018-03-04T04:38:23.414Z,98222.52
2018-03-04T04:40:51.909Z,98216.03
2018-03-04T04:43:20.417Z,98215.28
2018-03-04T04:45:48.884Z,98211.00
2018-03-04T04:48:17.341Z,98207.69
2018-03-04T04:50:45.855Z,98207.81
2018-03-04T04:53:14.335Z,98209.87
2018-03-04T04:55:42.833Z,98213.45
2018-03-04T04:58:11.302Z,98208.16
2018-03-04T05:00:39.813Z,98213.17
2018-03-04T05:03:08.273Z,98214.55
2018-03-04T05:05:36.908Z,98221.88
2018-03-04T05:08:05.365Z,98228.42
2018-03-04T05:10:33.885Z,98226.04
2018-03-04T05:13:02.342Z,98228.18
2018-03-04T05:15:30.822Z,98234.45
2018-03-04T05:17:59.314Z,98238.06
2018-03-04T05:20:27.778Z,98246.02
2018-03-04T05:22:56.287Z,98253.09
2018-03-04T05:25:24.786Z,98246.73
2018-03-04T05:27:53.298Z,98253.40
2018-03-04T05:30:21.753Z,98253.49
2018-03-04T05:32:50.250Z,98262.08
2018-03-04T05:35:18.723Z,98252.64
2018-03-04T05:37:47.266Z,98265.93
2018-03-04T05:40:15.707Z,98254.89
2018-03-04T05:42:44.162Z,98267.23
2018-03-04T05:45:12.674Z,98265.40
2018-03-04T05:47:41.174Z,98275.20
2018-03-04T05:50:09.649Z,98269.64
2018-03-04T05:52:38.206Z,98279.23
2018-03-04T05:55:06.717Z,98286.16
2018-03-04T05:57:35.192Z,98280.88
2018-03-04T06:00:03.678Z,98287.38
2018-03-04T06:02:33.138Z,98296.41
2018-03-04T06:05:01.591Z,98293.06
2018-03-04T06:07:30.059Z,98296.17
2018-03-04T06:09:58.598Z,98300.99
2018-03-04T06:12:27.118Z,98309.23
2018-03-04T06:14:55.582Z,98307.34
2018-03-04T06:17:24.046Z,98327.61
2018-03-04T06:19:52.548Z,98322.00
2018-03-04T06:22:21.015Z,98327.47
2018-03-04T06:24:49.495Z,98331.37
2018-03-04T06:27:17.986Z,98333.27
2018-03-04T06:29:46.512Z,98335.03
2018-03-04T06:32:15.018Z,98340.88
2018-03-04T06:34:43.624Z,98354.75
2018-03-04T06:37:12.090Z,98356.42
2018-03-04T06:39:40.600Z,98359.23
2018-03-04T06:42:09.095Z,98368.02
2018-03-04T06:44:37.602Z,98362.59
2018-03-04T06:47:06.066Z,98364.35
2018-03-04T06:49:34.585Z,98378.04
2018-03-04T06:52:03.050Z,98387.05
2018-03-04T06:54:31.546Z,98393.90
2018-03-04T06:57:00.010Z,98396.24
2018-03-04T06:59:28.519Z,98389.82
2018-03-04T07:01:56.969Z,98408.97
2018-03-04T07:04:25.474Z,98408.51
2018-03-04T07:06:53.998Z,98419.17
2018-03-04T07:09:22.453Z,98419.06
2018-03-04T07:11:50.914Z,98437.11
2018-03-04T07:14:19.414Z,98431.04
2018-03-04T07:16:47.875Z,98415.91
2018-03-04T07:19:16.337Z,98428.38
2018-03-04T07:21:44.825Z,98429.94
2018-03-04T07:24:13.317Z,98430.44
2018-03-04T07:26:41.814Z,98435.77
2018-03-04T07:29:10.314Z,98436.55
2018-03-04T07:31:38.783Z,98441.01
2018-03-04T07:34:07.266Z,98450.17
2018-03-04T07:36:35.758Z,98454.07
2018-03-04T07:39:04.281Z,98453.77
2018-03-04T07:41:32.780Z,98458.33
2018-03-04T07:44:01.239Z,98459.82
2018-03-04T07:46:29.750Z,98461.20
2018-03-04T07:48:58.206Z,98467.72
2018-03-04T07:51:26.669Z,98475.14
2018-03-04T07:53:55.133Z,98478.48
2018-03-04T07:56:23.647Z,98475.05
2018-03-04T07:58:52.170Z,98462.32
2018-03-04T08:01:20.635Z,98481.67
2018-03-04T08:03:49.144Z,98483.50
2018-03-04T08:06:17.659Z,98485.56
2018-03-04T08:08:46.127Z,98469.20
2018-03-04T08:11:14.594Z,98492.16
2018-03-04T08:13:43.098Z,98495.03
2018-03-04T08:16:11.703Z,98498.25
2018-03-04T08:18:40.194Z,98502.36
2018-03-04T08:21:08.698Z,98501.70
2018-03-04T08:23:37.193Z,98525.22
2018-03-04T08:26:17.403Z,98523.35
2018-03-04T08:28:45.903Z,98518.77
2018-03-04T08:31:14.369Z,98529.50
2018-03-04T08:33:42.902Z,98532.89
2018-03-04T08:36:11.367Z,98528.55
2018-03-04T08:38:39.830Z,98535.95
2018-03-04T08:41:08.350Z,98541.30
2018-03-04T08:43:36.813Z,98547.41
2018-03-04T08:46:05.296Z,98554.34
2018-03-04T08:48:33.782Z,98554.23
2018-03-04T08:51:02.341Z,98556.20
2018-03-04T08:53:30.849Z,98560.00
2018-03-04T08:55:59.351Z,98572.50
2018-03-04T08:58:27.818Z,98576.34
2018-03-04T09:00:56.330Z,98582.39
2018-03-04T09:03:24.822Z,98586.94
2018-03-04T09:05:53.313Z,98593.05
2018-03-04T09:08:21.817Z,98591.04
2018-03-04T09:10:50.316Z,98594.11
2018-03-04T09:13:18.818Z,98601.84
2018-03-04T09:15:47.292Z,98599.68
2018-03-04T09:18:15.803Z,98608.11
2018-03-04T09:20:44.293Z,98619.25
2018-03-04T09:23:12.794Z,98617.54
2018-03-04T09:25:41.257Z,98614.73
2018-03-04T09:28:09.719Z,98611.00
2018-03-04T09:30:38.226Z,98614.30
2018-03-04T09:33:06.725Z,98614.98
2018-03-04T09:35:35.189Z,98602.35
2018-03-04T09:38:03.730Z,98590.69
2018-03-04T09:40:32.216Z,98617.50
2018-03-04T09:43:00.737Z,98616.89
2018-03-04T09:45:29.239Z,98625.08
2018-03-04T09:47:57.788Z,98599.61
2018-03-04T09:50:26.290Z,98633.52
2018-03-04T09:52:54.766Z,98630.55
2018-03-04T09:55:23.294Z,98627.57
2018-03-04T09:57:51.780Z,98627.13
2018-03-04T10:00:20.285Z,98619.94
2018-03-04T10:02:48.818Z,98623.73
2018-03-04T10:05:17.342Z,98628.96
2018-03-04T10:07:45.822Z,98626.45
2018-03-04T10:10:14.295Z,98626.57
2018-03-04T10:12:42.803Z,98628.45
2018-03-04T10:15:11.306Z,98619.90
2018-03-04T10:17:39.789Z,98631.61
2018-03-04T10:20:08.331Z,98637.31
2018-03-04T10:22:36.837Z,98632.97
2018-03-04T10:25:05.314Z,98630.77
2018-03-04T10:27:33.834Z,98636.02
2018-03-04T10:30:02.311Z,98636.56
2018-03-04T10:32:30.806Z,98637.22
2018-03-04T10:34:59.331Z,98639.14
2018-03-04T10:37:27.826Z,98639.76
2018-03-04T10:39:56.288Z,98637.88
2018-03-04T10:42:24.798Z,98635.92
2018-03-04T10:44:53.254Z,98633.23
2018-03-04T10:47:21.752Z,98631.95
2018-03-04T10:49:50.208Z,98629.25
2018-03-04T10:52:18.719Z,98628.84
2018-03-04T10:54:47.171Z,98620.53
2018-03-04T10:57:15.654Z,98627.52
2018-03-04T10:59:44.148Z,98630.84
2018-03-04T11:02:17.376Z,98631.46
2018-03-04T11:04:45.890Z,98620.00
2018-03-04T11:07:14.398Z,98630.36
2018-03-04T11:09:42.918Z,98628.37
2018-03-04T11:12:11.460Z,98638.24
2018-03-04T11:14:39.910Z,98641.31
2018-03-04T11:17:08.415Z,98631.82
2018-03-04T11:19:36.891Z,98646.41
2018-03-04T11:22:05.342Z,98650.20
2018-03-04T11:24:33.842Z,98660.69
2018-03-04T11:27:02.354Z,98659.80
2018-03-04T11:29:30.822Z,98677.14
2018-03-04T11:31:59.344Z,98656.75
2018-03-04T11:34:27.810Z,98672.75
2018-03-04T11:36:56.326Z,98667.30
2018-03-04T11:39:24.877Z,98686.46
2018-03-04T11:41:53.380Z,98683.05
2018-03-04T11:44:21.910Z,98690.33
2018-03-04T11:46:50.378Z,98674.25
2018-03-04T11:49:18.846Z,98666.03
2018-03-04T11:51:47.344Z,98680.05
2018-03-04T11:54:15.811Z,98684.05
2018-03-04T11:56:44.319Z,98688.41
2018-03-04T11:59:12.832Z,98694.94
2018-03-04T12:01:41.318Z,98682.84
2018-03-04T12:04:09.822Z,98686.56
2018-03-04T12:06:38.276Z,98692.18
2018-03-04T12:09:06.742Z,98696.10
2018-03-04T12:11:35.269Z,98692.58
2018-03-04T12:14:03.742Z,98704.48
2018-03-04T12:16:32.268Z,98713.42
2018-03-04T12:19:00.770Z,98721.72
2018-03-04T12:21:29.252Z,98725.92
2018-03-04T12:23:57.758Z,98729.45
2018-03-04T12:26:26.295Z,98733.73
2018-03-04T12:28:54.753Z,98728.74
2018-03-04T12:31:23.264Z,98738.39
2018-03-04T12:33:51.744Z,98739.61
2018-03-04T12:36:20.223Z,98743.22
2018-03-04T12:38:48.682Z,98753.55
2018-03-04T12:41:17.177Z,98753.41
2018-03-04T12:43:45.682Z,98751.55
2018-03-04T12:46:14.146Z,98760.03
2018-03-04T12:48:42.666Z,98763.59
2018-03-04T12:51:11.182Z,98764.50
2018-03-04T12:53:39.666Z,98760.62
2018-03-04T12:56:08.179Z,98774.23
2018-03-04T12:58:36.678Z,98767.48
2018-03-04T13:01:05.243Z,98768.18
2018-03-04T13:03:33.742Z,98773.47
2018-03-04T13:06:02.215Z,98770.48
2018-03-04T13:08:30.724Z,98775.52
2018-03-04T13:10:59.208Z,98788.83
2018-03-04T13:13:27.757Z,98803.98
2018-03-04T13:15:56.229Z,98801.01
2018-03-04T13:18:24.746Z,98790.00
2018-03-04T13:20:53.262Z,98792.78
2018-03-04T13:23:21.778Z,98814.34
2018-03-04T13:25:50.293Z,98807.15
2018-03-04T13:28:18.759Z,98809.81
2018-03-04T13:30:47.263Z,98803.38
2018-03-04T13:33:15.779Z,98814.84
2018-03-04T13:35:44.282Z,98809.88
2018-03-04T13:38:12.759Z,98818.92
2018-03-04T13:40:41.298Z,98813.63
2018-03-04T13:43:09.830Z,98809.42
2018-03-04T13:45:39.102Z,98817.88
2018-03-04T13:48:07.562Z,98810.84
2018-03-04T13:50:36.140Z,98791.06
2018-03-04T13:53:04.617Z,98806.80
2018-03-04T13:55:33.089Z,98812.05
2018-03-04T13:58:01.567Z,98816.01
2018-03-04T14:00:30.035Z,98815.16
2018-03-04T14:02:58.533Z,98811.33
2018-03-04T14:12:12.539Z,98816.34
2018-03-04T14:23:35.519Z,98839.02
2018-03-04T14:26:16.233Z,98847.86
2018-03-04T14:28:49.127Z,98871.58
2018-03-04T14:31:17.582Z,98860.69
2018-03-04T14:33:46.330Z,98885.09
2018-03-04T14:36:14.818Z,98891.10
2018-03-04T14:38:43.587Z,98892.45
2018-03-04T14:41:12.366Z,98884.85
2018-03-04T14:43:41.186Z,98916.30
2018-03-04T14:46:09.970Z,98906.45
2018-03-04T14:51:13.127Z,98885.77
2018-03-04T14:53:41.994Z,98892.83
2018-03-04T14:56:10.854Z,98908.42
2018-03-04T14:58:44.032Z,98913.82
2018-03-04T15:01:12.571Z,98908.70
2018-03-04T15:03:41.046Z,98913.53
2018-03-04T15:09:19.263Z,98923.00
2018-03-04T15:11:52.030Z,98920.09
2018-03-04T15:14:20.540Z,98921.61
2018-03-04T15:16:50.750Z,98933.76
2018-03-04T15:21:55.431Z,98942.50
2018-03-04T15:24:23.970Z,98933.89
2018-03-04T15:26:52.476Z,98919.92
2018-03-04T15:29:21.799Z,98947.21
2018-03-04T15:31:51.123Z,98951.84
2018-03-04T15:34:21.468Z,98962.89
2018-03-04T15:36:50.167Z,98965.15
2018-03-04T15:39:20.327Z,98965.95
2018-03-04T15:41:48.954Z,98946.36
2018-03-04T15:44:17.805Z,98961.92
2018-03-04T15:46:47.514Z,98967.76
2018-03-04T15:49:17.726Z,98962.65
2018-03-04T15:51:50.058Z,98959.96
2018-03-04T15:54:21.343Z,98961.62
2018-03-04T15:56:49.942Z,98973.51
2018-03-04T15:59:18.662Z,98966.36
2018-03-04T16:04:20.540Z,98980.67
2018-03-04T16:06:49.038Z,98983.78
2018-03-04T16:09:17.499Z,98979.95
2018-03-04T16:11:45.998Z,98992.04
2018-03-04T16:14:14.460Z,99004.28
2018-03-04T16:16:42.951Z,99014.22
2018-03-04T16:19:11.410Z,99013.81
2018-03-04T16:21:40.217Z,99012.55
2018-03-04T16:24:08.692Z,99011.06
2018-03-04T16:26:37.206Z,99012.81
2018-03-04T16:31:38.178Z,99028.17
2018-03-04T16:34:11.584Z,99029.80
2018-03-04T16:36:40.848Z,99031.20
2018-03-04T16:39:09.349Z,99033.84
2018-03-04T16:41:39.622Z,99044.30
2018-03-04T16:44:08.527Z,99052.20
2018-03-04T16:46:36.981Z,99053.73
2018-03-04T16:49:05.471Z,99058.38
2018-03-04T16:54:06.631Z,99063.30
2018-03-04T16:59:07.619Z,99076.56
2018-03-04T17:01:36.398Z,99084.95
2018-03-04T17:04:04.867Z,99091.94
2018-03-04T17:06:37.138Z,99096.27
2018-03-04T17:09:05.689Z,99091.19
2018-03-04T17:11:35.871Z,99097.39
2018-03-04T17:14:04.354Z,99107.64
2018-03-04T17:16:32.880Z,99117.48
2018-03-04T17:19:01.344Z,99118.36
2018-03-04T17:21:29.802Z,99122.05
2018-03-04T17:23:58.317Z,99113.82
2018-03-04T17:26:26.794Z,99127.42
2018-03-04T17:28:55.286Z,99128.58
2018-03-04T17:31:23.790Z,99144.19
2018-03-04T17:33:52.246Z,99155.63
2018-03-04T17:36:20.701Z,99152.45
2018-03-04T17:41:21.727Z,99158.91
2018-03-04T17:43:50.473Z,99161.26
2018-03-04T17:48:51.547Z,99168.09
2018-03-04T17:53:53.267Z,99186.86
2018-03-04T17:56:23.572Z,99173.80
2018-03-04T17:58:52.063Z,99177.18
2018-03-04T18:03:53.035Z,99177.77
2018-03-04T18:06:21.831Z,99184.30
2018-03-04T18:08:51.152Z,99190.55
2018-03-04T18:11:19.618Z,99196.20
2018-03-04T18:13:48.118Z,99190.44
2018-03-04T18:16:16.848Z,99188.32
2018-03-04T18:18:45.422Z,99195.77
2018-03-04T18:21:13.897Z,99197.17
2018-03-04T18:23:42.395Z,99197.61
2018-03-04T18:26:11.183Z,99207.54
2018-03-04T18:28:39.690Z,99205.00
2018-03-04T18:31:08.186Z,99213.15
2018-03-04T18:33:36.938Z,99214.17
2018-03-04T18:36:05.502Z,99214.30
2018-03-04T18:38:34.850Z,99223.94
2018-03-04T18:41:03.373Z,99212.16
2018-03-04T18:43:35.534Z,99223.48
2018-03-04T18:51:09.089Z,99232.81
2018-03-04T18:53:37.947Z,99234.67
2018-03-04T18:56:06.410Z,99223.98
2018-03-04T18:58:34.886Z,99229.47
2018-03-04T19:01:03.403Z,99237.21
2018-03-04T19:03:31.873Z,99243.16
2018-03-04T19:06:00.333Z,99253.36
2018-03-04T19:08:28.846Z,99261.86
2018-03-04T19:11:18.657Z,99262.88
2018-03-04T19:13:51.851Z,99268.76
2018-03-04T19:16:20.379Z,99264.87
2018-03-04T19:18:52.539Z,99250.09
2018-03-04T19:21:21.302Z,99259.16
2018-03-04T19:23:50.047Z,99265.77
2018-03-04T19:26:18.789Z,99278.92
2018-03-04T19:31:19.801Z,99279.90
2018-03-04T19:33:48.298Z,99284.34
2018-03-04T19:36:16.813Z,99283.93
2018-03-04T19:38:45.279Z,99292.16
2018-03-04T19:43:46.426Z,99289.35
2018-03-04T19:46:14.904Z,99288.58
2018-03-04T19:48:45.320Z,99284.55
2018-03-04T19:51:13.782Z,99292.08
2018-03-04T19:53:42.315Z,99297.94
2018-03-04T19:56:10.782Z,99299.05
2018-03-04T19:58:39.250Z,99308.25
2018-03-04T20:01:07.732Z,99304.34
2018-03-04T20:03:36.482Z,99308.97
2018-03-04T20:06:04.982Z,99312.97
2018-03-04T20:08:34.246Z,99304.95
2018-03-04T20:11:05.126Z,99306.90
2018-03-04T20:13:33.633Z,99307.63
2018-03-04T20:16:02.450Z,99310.23
2018-03-04T20:18:30.949Z,99301.55
2018-03-04T20:20:59.456Z,99317.50
2018-03-04T20:23:28.231Z,99320.80
2018-03-04T20:25:56.683Z,99310.11
2018-03-04T20:28:25.419Z,99316.13
2018-03-04T20:30:54.123Z,99315.86
2018-03-04T20:33:22.697Z,99308.41
2018-03-04T20:35:51.487Z,99323.66
2018-03-04T20:38:19.982Z,99314.13
2018-03-04T20:40:50.954Z,99301.12
2018-03-04T20:43:21.714Z,99296.23
2018-03-04T20:45:53.942Z,99314.36
2018-03-04T20:48:22.483Z,99309.51
2018-03-04T20:50:50.971Z,99313.30
2018-03-04T20:53:19.434Z,99314.23
2018-03-04T20:55:47.926Z,99324.02
2018-03-04T20:58:16.397Z,99318.27
2018-03-04T21:00:45.229Z,99320.31
2018-03-04T21:03:13.698Z,99335.71
2018-03-04T21:05:42.171Z,99335.58
2018-03-04T21:08:12.482Z,99340.28
2018-03-04T21:10:42.489Z,99337.55
2018-03-04T21:13:10.991Z,99340.60
2018-03-04T21:15:39.866Z,99343.95
2018-03-04T21:18:08.330Z,99336.69
2018-03-04T21:20:36.855Z,99345.17
2018-03-04T21:23:05.335Z,99346.27
2018-03-04T21:25:33.795Z,99350.99
2018-03-04T21:28:02.300Z,99349.77
2018-03-04T21:30:31.534Z,99353.94
2018-03-04T21:33:00.130Z,99360.81
2018-03-04T21:35:28.607Z,99370.35
2018-03-04T21:37:57.380Z,99377.77
2018-03-04T21:40:25.877Z,99384.98
2018-03-04T21:42:54.342Z,99371.82
2018-03-04T21:45:23.083Z,99385.23
2018-03-04T21:47:51.618Z,99379.07
2018-03-04T21:50:20.122Z,99381.64
2018-03-04T21:52:48.582Z,99379.55
2018-03-04T21:55:17.043Z,99389.38
2018-03-04T21:57:45.545Z,99378.33
2018-03-04T22:00:13.995Z,99377.92
2018-03-04T22:02:43.238Z,99386.05
2018-03-04T22:05:11.746Z,99389.42
2018-03-04T22:07:40.194Z,99383.87
2018-03-04T22:10:08.690Z,99389.70
2018-03-04T22:12:37.150Z,99382.94
2018-03-04T22:15:05.643Z,99382.93
2018-03-04T22:20:06.630Z,99391.83
2018-03-04T22:22:35.398Z,99389.71
2018-03-04T22:25:03.890Z,99404.39
2018-03-04T22:27:32.358Z,99401.28
2018-03-04T22:30:00.850Z,99397.91
2018-03-04T22:32:29.360Z,99408.42
2018-03-04T22:34:57.814Z,99404.92
2018-03-04T22:37:26.286Z,99422.29
2018-03-04T22:39:55.074Z,99413.73
2018-03-04T22:42:23.534Z,99417.27
2018-03-04T22:44:52.023Z,99416.13
2018-03-04T22:47:20.780Z,99417.28
2018-03-04T22:49:49.222Z,99416.02
2018-03-04T22:52:18.561Z,99423.92
2018-03-04T22:54:47.314Z,99418.98
2018-03-04T22:57:15.811Z,99416.70
2018-03-04T22:59:44.313Z,99428.89
2018-03-04T23:02:13.010Z,99422.45
2018-03-04T23:04:41.486Z,99418.62
2018-03-04T23:07:09.996Z,99428.24
2018-03-04T23:09:38.554Z,99425.02
2018-03-04T23:12:07.014Z,99426.36
2018-03-04T23:14:35.512Z,99417.67
2018-03-04T23:17:03.998Z,99417.88
2018-03-04T23:19:32.491Z,99414.05
2018-03-04T23:22:00.943Z,99401.17
2018-03-04T23:24:29.436Z,99418.30
2018-03-04T23:26:57.897Z,99420.38
2018-03-04T23:29:26.381Z,99424.58
2018-03-04T23:31:54.826Z,99426.77
2018-03-04T23:34:23.317Z,99425.27
2018-03-04T23:36:55.422Z,99419.19
2018-03-04T23:39:23.902Z,99420.20
2018-03-04T23:44:24.867Z,99422.13
2018-03-04T23:49:26.330Z,99438.03
2018-03-04T23:51:54.822Z,99443.91
2018-03-04T23:54:23.302Z,99442.51
2018-03-04T23:56:51.727Z,99439.05
2018-03-04T23:59:20.210Z,99443.77
